sensor_id;sensor_type;location;lat;lon;timestamp;temperature;humidity
49184;DHT22;35021;49.214;12.270;2023-08-06T00:01:43;22.50;59.50
49184;DHT22;35021;49.214;12.270;2023-08-06T00:04:10;22.50;59.50
49184;DHT22;35021;49.214;12.270;2023-08-06T00:06:37;22.50;59.60
49184;DHT22;35021;49.214;12.270;2023-08-06T00:09:04;22.50;59.60
49184;DHT22;35021;49.214;12.270;2023-08-06T00:11:31;22.40;59.70
49184;DHT22;35021;49.214;12.270;2023-08-06T00:13:58;22.40;59.70
49184;DHT22;35021;49.214;12.270;2023-08-06T00:16:25;22.40;59.70
49184;DHT22;35021;49.214;12.270;2023-08-06T00:18:52;22.40;59.80
49184;DHT22;35021;49.214;12.270;2023-08-06T00:21:18;22.40;59.90
49184;DHT22;35021;49.214;12.270;2023-08-06T00:23:45;22.30;59.90
49184;DHT22;35021;49.214;12.270;2023-08-06T00:26:12;22.30;60.00
49184;DHT22;35021;49.214;12.270;2023-08-06T00:28:39;22.30;60.00
49184;DHT22;35021;49.214;12.270;2023-08-06T00:31:06;22.30;60.00
49184;DHT22;35021;49.214;12.270;2023-08-06T00:33:33;22.30;60.00
49184;DHT22;35021;49.214;12.270;2023-08-06T00:35:59;22.30;60.00
49184;DHT22;35021;49.214;12.270;2023-08-06T00:38:26;22.30;60.10
49184;DHT22;35021;49.214;12.270;2023-08-06T00:40:53;22.30;60.80
49184;DHT22;35021;49.214;12.270;2023-08-06T00:43:20;22.30;60.10
49184;DHT22;35021;49.214;12.270;2023-08-06T00:45:47;22.30;60.20
49184;DHT22;35021;49.214;12.270;2023-08-06T00:48:14;22.30;60.20
49184;DHT22;35021;49.214;12.270;2023-08-06T00:50:42;22.30;60.20
49184;DHT22;35021;49.214;12.270;2023-08-06T00:53:09;22.30;60.20
49184;DHT22;35021;49.214;12.270;2023-08-06T00:55:36;22.30;60.20
49184;DHT22;35021;49.214;12.270;2023-08-06T00:58:03;22.30;60.20
49184;DHT22;35021;49.214;12.270;2023-08-06T01:00:30;22.30;60.10
49184;DHT22;35021;49.214;12.270;2023-08-06T01:02:57;22.30;60.10
49184;DHT22;35021;49.214;12.270;2023-08-06T01:05:24;22.30;60.10
49184;DHT22;35021;49.214;12.270;2023-08-06T01:13:43;22.30;60.00
49184;DHT22;35021;49.214;12.270;2023-08-06T01:16:18;22.30;60.00
49184;DHT22;35021;49.214;12.270;2023-08-06T01:18:47;22.30;60.10
49184;DHT22;35021;49.214;12.270;2023-08-06T01:21:17;22.30;60.20
49184;DHT22;35021;49.214;12.270;2023-08-06T01:23:45;22.30;60.20
49184;DHT22;35021;49.214;12.270;2023-08-06T01:28:44;22.30;60.30
49184;DHT22;35021;49.214;12.270;2023-08-06T01:31:37;22.30;60.40
49184;DHT22;35021;49.214;12.270;2023-08-06T01:34:13;22.30;60.40
49184;DHT22;35021;49.214;12.270;2023-08-06T01:36:40;22.20;60.30
49184;DHT22;35021;49.214;12.270;2023-08-06T01:39:08;22.30;60.40
49184;DHT22;35021;49.214;12.270;2023-08-06T01:41:35;22.30;60.40
49184;DHT22;35021;49.214;12.270;2023-08-06T01:44:02;22.30;60.30
49184;DHT22;35021;49.214;12.270;2023-08-06T01:46:29;22.30;60.30
49184;DHT22;35021;49.214;12.270;2023-08-06T01:48:56;22.30;60.30
49184;DHT22;35021;49.214;12.270;2023-08-06T01:51:23;22.30;60.30
49184;DHT22;35021;49.214;12.270;2023-08-06T01:53:50;22.30;60.30
49184;DHT22;35021;49.214;12.270;2023-08-06T01:56:17;22.20;60.30
49184;DHT22;35021;49.214;12.270;2023-08-06T01:58:44;22.30;60.30
49184;DHT22;35021;49.214;12.270;2023-08-06T02:01:10;22.30;60.30
49184;DHT22;35021;49.214;12.270;2023-08-06T02:03:37;22.30;60.30
49184;DHT22;35021;49.214;12.270;2023-08-06T02:06:04;22.30;60.30
49184;DHT22;35021;49.214;12.270;2023-08-06T02:08:32;22.20;60.20
49184;DHT22;35021;49.214;12.270;2023-08-06T02:10:58;22.20;60.20
49184;DHT22;35021;49.214;12.270;2023-08-06T02:13:26;22.20;60.20
49184;DHT22;35021;49.214;12.270;2023-08-06T02:15:53;22.20;60.20
49184;DHT22;35021;49.214;12.270;2023-08-06T02:18:19;22.20;60.20
49184;DHT22;35021;49.214;12.270;2023-08-06T02:20:57;22.20;60.20
49184;DHT22;35021;49.214;12.270;2023-08-06T02:23:24;22.20;60.10
49184;DHT22;35021;49.214;12.270;2023-08-06T02:26:02;22.20;60.10
49184;DHT22;35021;49.214;12.270;2023-08-06T02:28:30;22.20;60.00
49184;DHT22;35021;49.214;12.270;2023-08-06T02:30:58;22.30;60.70
49184;DHT22;35021;49.214;12.270;2023-08-06T02:33:25;22.20;59.90
49184;DHT22;35021;49.214;12.270;2023-08-06T02:35:59;22.30;60.00
49184;DHT22;35021;49.214;12.270;2023-08-06T02:38:27;22.30;60.00
49184;DHT22;35021;49.214;12.270;2023-08-06T02:40:54;22.30;60.00
49184;DHT22;35021;49.214;12.270;2023-08-06T02:43:21;22.20;59.80
49184;DHT22;35021;49.214;12.270;2023-08-06T02:45:48;22.30;59.90
49184;DHT22;35021;49.214;12.270;2023-08-06T02:48:15;22.30;59.90
49184;DHT22;35021;49.214;12.270;2023-08-06T02:50:42;22.30;59.80
49184;DHT22;35021;49.214;12.270;2023-08-06T02:53:09;22.30;59.80
49184;DHT22;35021;49.214;12.270;2023-08-06T02:55:36;22.30;59.80
49184;DHT22;35021;49.214;12.270;2023-08-06T02:58:04;22.30;59.80
49184;DHT22;35021;49.214;12.270;2023-08-06T03:00:31;22.30;60.40
49184;DHT22;35021;49.214;12.270;2023-08-06T03:02:58;22.30;59.80
49184;DHT22;35021;49.214;12.270;2023-08-06T03:05:26;22.30;60.40
49184;DHT22;35021;49.214;12.270;2023-08-06T03:07:52;22.30;59.80
49184;DHT22;35021;49.214;12.270;2023-08-06T03:10:20;22.30;59.80
49184;DHT22;35021;49.214;12.270;2023-08-06T03:12:47;22.30;59.80
49184;DHT22;35021;49.214;12.270;2023-08-06T03:15:13;22.30;59.80
49184;DHT22;35021;49.214;12.270;2023-08-06T03:17:40;22.30;59.80
49184;DHT22;35021;49.214;12.270;2023-08-06T03:20:08;22.30;59.80
49184;DHT22;35021;49.214;12.270;2023-08-06T03:22:35;22.30;59.80
49184;DHT22;35021;49.214;12.270;2023-08-06T03:25:02;22.30;59.80
49184;DHT22;35021;49.214;12.270;2023-08-06T03:27:29;22.30;59.80
49184;DHT22;35021;49.214;12.270;2023-08-06T03:29:55;22.30;59.80
49184;DHT22;35021;49.214;12.270;2023-08-06T03:32:22;22.30;59.70
49184;DHT22;35021;49.214;12.270;2023-08-06T03:34:49;22.30;59.80
49184;DHT22;35021;49.214;12.270;2023-08-06T03:37:16;22.30;59.80
49184;DHT22;35021;49.214;12.270;2023-08-06T03:39:43;22.30;59.80
49184;DHT22;35021;49.214;12.270;2023-08-06T03:42:10;22.30;59.70
49184;DHT22;35021;49.214;12.270;2023-08-06T03:44:37;22.30;59.70
49184;DHT22;35021;49.214;12.270;2023-08-06T03:47:04;22.30;59.70
49184;DHT22;35021;49.214;12.270;2023-08-06T03:49:31;22.30;59.70
49184;DHT22;35021;49.214;12.270;2023-08-06T03:51:58;22.30;59.70
49184;DHT22;35021;49.214;12.270;2023-08-06T03:54:24;22.30;59.80
49184;DHT22;35021;49.214;12.270;2023-08-06T03:56:51;22.30;59.80
49184;DHT22;35021;49.214;12.270;2023-08-06T03:59:18;22.30;59.80
49184;DHT22;35021;49.214;12.270;2023-08-06T04:01:45;22.30;59.90
49184;DHT22;35021;49.214;12.270;2023-08-06T04:04:12;22.30;59.90
49184;DHT22;35021;49.214;12.270;2023-08-06T04:06:39;22.20;59.90
49184;DHT22;35021;49.214;12.270;2023-08-06T04:09:05;22.20;59.90
49184;DHT22;35021;49.214;12.270;2023-08-06T04:11:32;22.20;60.00
49184;DHT22;35021;49.214;12.270;2023-08-06T04:13:59;22.20;59.90
49184;DHT22;35021;49.214;12.270;2023-08-06T04:16:26;22.20;60.00
49184;DHT22;35021;49.214;12.270;2023-08-06T04:18:54;22.20;59.90
49184;DHT22;35021;49.214;12.270;2023-08-06T04:21:22;22.20;60.00
49184;DHT22;35021;49.214;12.270;2023-08-06T04:23:49;22.20;59.90
49184;DHT22;35021;49.214;12.270;2023-08-06T04:26:15;22.20;60.00
49184;DHT22;35021;49.214;12.270;2023-08-06T04:28:42;22.20;59.90
49184;DHT22;35021;49.214;12.270;2023-08-06T04:31:09;22.20;60.00
49184;DHT22;35021;49.214;12.270;2023-08-06T04:33:36;22.20;59.90
49184;DHT22;35021;49.214;12.270;2023-08-06T04:36:03;22.20;60.00
49184;DHT22;35021;49.214;12.270;2023-08-06T04:38:30;22.20;59.90
49184;DHT22;35021;49.214;12.270;2023-08-06T04:40:57;22.20;59.90
49184;DHT22;35021;49.214;12.270;2023-08-06T04:43:24;22.20;59.90
49184;DHT22;35021;49.214;12.270;2023-08-06T04:45:53;22.20;59.90
49184;DHT22;35021;49.214;12.270;2023-08-06T04:48:21;22.20;59.90
49184;DHT22;35021;49.214;12.270;2023-08-06T04:50:50;22.20;59.90
49184;DHT22;35021;49.214;12.270;2023-08-06T04:53:17;22.20;59.90
49184;DHT22;35021;49.214;12.270;2023-08-06T04:55:44;22.20;59.80
49184;DHT22;35021;49.214;12.270;2023-08-06T04:58:13;22.20;59.80
49184;DHT22;35021;49.214;12.270;2023-08-06T05:00:40;22.20;59.80
49184;DHT22;35021;49.214;12.270;2023-08-06T05:03:07;22.20;59.80
49184;DHT22;35021;49.214;12.270;2023-08-06T05:05:34;22.20;59.80
49184;DHT22;35021;49.214;12.270;2023-08-06T05:08:01;22.20;59.80
49184;DHT22;35021;49.214;12.270;2023-08-06T05:10:28;22.20;59.80
49184;DHT22;35021;49.214;12.270;2023-08-06T05:12:55;22.20;59.80
49184;DHT22;35021;49.214;12.270;2023-08-06T05:15:22;22.20;59.90
49184;DHT22;35021;49.214;12.270;2023-08-06T05:17:49;22.20;60.00
49184;DHT22;35021;49.214;12.270;2023-08-06T05:20:16;22.20;59.90
49184;DHT22;35021;49.214;12.270;2023-08-06T05:22:43;22.10;60.00
49184;DHT22;35021;49.214;12.270;2023-08-06T05:25:13;22.10;60.10
49184;DHT22;35021;49.214;12.270;2023-08-06T05:27:41;22.10;60.30
49184;DHT22;35021;49.214;12.270;2023-08-06T05:30:08;22.00;60.30
49184;DHT22;35021;49.214;12.270;2023-08-06T05:32:35;22.00;60.40
49184;DHT22;35021;49.214;12.270;2023-08-06T05:35:03;22.00;60.40
49184;DHT22;35021;49.214;12.270;2023-08-06T05:37:29;22.00;60.40
49184;DHT22;35021;49.214;12.270;2023-08-06T05:39:56;22.00;60.50
49184;DHT22;35021;49.214;12.270;2023-08-06T05:42:23;22.00;60.50
49184;DHT22;35021;49.214;12.270;2023-08-06T05:44:50;22.00;60.50
49184;DHT22;35021;49.214;12.270;2023-08-06T05:47:17;22.00;60.50
49184;DHT22;35021;49.214;12.270;2023-08-06T05:49:43;22.00;60.50
49184;DHT22;35021;49.214;12.270;2023-08-06T05:52:10;22.00;60.50
49184;DHT22;35021;49.214;12.270;2023-08-06T05:54:37;22.00;60.50
49184;DHT22;35021;49.214;12.270;2023-08-06T05:57:04;22.00;60.60
49184;DHT22;35021;49.214;12.270;2023-08-06T05:59:31;22.00;60.60
49184;DHT22;35021;49.214;12.270;2023-08-06T06:01:58;22.00;60.50
49184;DHT22;35021;49.214;12.270;2023-08-06T06:04:25;22.00;60.50
49184;DHT22;35021;49.214;12.270;2023-08-06T06:06:52;22.00;60.50
49184;DHT22;35021;49.214;12.270;2023-08-06T06:09:19;22.00;60.50
49184;DHT22;35021;49.214;12.270;2023-08-06T06:11:45;22.00;60.40
49184;DHT22;35021;49.214;12.270;2023-08-06T06:14:12;22.00;60.50
49184;DHT22;35021;49.214;12.270;2023-08-06T06:16:39;22.00;60.50
49184;DHT22;35021;49.214;12.270;2023-08-06T06:19:06;22.00;60.50
49184;DHT22;35021;49.214;12.270;2023-08-06T06:21:33;22.00;60.60
49184;DHT22;35021;49.214;12.270;2023-08-06T06:24:00;22.00;60.70
49184;DHT22;35021;49.214;12.270;2023-08-06T06:26:26;22.00;60.70
49184;DHT22;35021;49.214;12.270;2023-08-06T06:28:54;22.00;60.70
49184;DHT22;35021;49.214;12.270;2023-08-06T06:31:20;22.00;60.70
49184;DHT22;35021;49.214;12.270;2023-08-06T06:33:47;22.00;60.70
49184;DHT22;35021;49.214;12.270;2023-08-06T06:36:14;22.00;60.70
49184;DHT22;35021;49.214;12.270;2023-08-06T06:38:41;22.00;60.70
49184;DHT22;35021;49.214;12.270;2023-08-06T06:41:08;22.00;60.70
49184;DHT22;35021;49.214;12.270;2023-08-06T06:43:35;22.00;60.60
49184;DHT22;35021;49.214;12.270;2023-08-06T06:46:01;22.00;60.60
49184;DHT22;35021;49.214;12.270;2023-08-06T06:48:31;22.00;60.60
49184;DHT22;35021;49.214;12.270;2023-08-06T06:50:58;22.00;60.60
49184;DHT22;35021;49.214;12.270;2023-08-06T06:53:26;22.00;60.50
49184;DHT22;35021;49.214;12.270;2023-08-06T06:56:01;22.00;60.50
49184;DHT22;35021;49.214;12.270;2023-08-06T06:58:28;22.00;60.50
49184;DHT22;35021;49.214;12.270;2023-08-06T07:00:55;22.00;60.50
49184;DHT22;35021;49.214;12.270;2023-08-06T07:03:22;22.00;60.50
49184;DHT22;35021;49.214;12.270;2023-08-06T07:05:49;22.00;60.50
49184;DHT22;35021;49.214;12.270;2023-08-06T07:08:16;22.00;60.40
49184;DHT22;35021;49.214;12.270;2023-08-06T07:10:43;22.00;60.40
49184;DHT22;35021;49.214;12.270;2023-08-06T07:13:10;22.10;60.50
49184;DHT22;35021;49.214;12.270;2023-08-06T07:15:37;22.10;60.50
49184;DHT22;35021;49.214;12.270;2023-08-06T07:18:04;22.00;60.40
49184;DHT22;35021;49.214;12.270;2023-08-06T07:20:31;22.10;60.50
49184;DHT22;35021;49.214;12.270;2023-08-06T07:23:00;22.00;60.40
49184;DHT22;35021;49.214;12.270;2023-08-06T07:25:27;22.00;60.50
49184;DHT22;35021;49.214;12.270;2023-08-06T07:27:54;22.00;60.60
49184;DHT22;35021;49.214;12.270;2023-08-06T07:30:21;22.00;60.70
49184;DHT22;35021;49.214;12.270;2023-08-06T07:32:47;22.00;60.80
49184;DHT22;35021;49.214;12.270;2023-08-06T07:35:14;22.00;60.90
49184;DHT22;35021;49.214;12.270;2023-08-06T07:37:41;22.00;61.00
49184;DHT22;35021;49.214;12.270;2023-08-06T07:40:08;21.90;61.00
49184;DHT22;35021;49.214;12.270;2023-08-06T07:42:35;21.90;61.10
49184;DHT22;35021;49.214;12.270;2023-08-06T07:45:03;21.90;61.10
49184;DHT22;35021;49.214;12.270;2023-08-06T07:47:30;21.90;61.10
49184;DHT22;35021;49.214;12.270;2023-08-06T07:49:56;21.90;61.10
49184;DHT22;35021;49.214;12.270;2023-08-06T07:52:23;21.90;61.10
49184;DHT22;35021;49.214;12.270;2023-08-06T07:54:50;21.90;61.10
49184;DHT22;35021;49.214;12.270;2023-08-06T07:57:17;21.90;61.10
49184;DHT22;35021;49.214;12.270;2023-08-06T07:59:44;21.90;61.20
49184;DHT22;35021;49.214;12.270;2023-08-06T08:02:10;21.90;61.10
49184;DHT22;35021;49.214;12.270;2023-08-06T08:04:37;22.00;61.20
49184;DHT22;35021;49.214;12.270;2023-08-06T08:07:04;22.00;61.20
49184;DHT22;35021;49.214;12.270;2023-08-06T08:09:31;22.00;61.20
49184;DHT22;35021;49.214;12.270;2023-08-06T08:11:58;22.00;61.10
49184;DHT22;35021;49.214;12.270;2023-08-06T08:14:27;22.00;61.10
49184;DHT22;35021;49.214;12.270;2023-08-06T08:16:55;22.00;61.10
49184;DHT22;35021;49.214;12.270;2023-08-06T08:19:22;21.90;61.00
49184;DHT22;35021;49.214;12.270;2023-08-06T08:21:50;21.90;61.00
49184;DHT22;35021;49.214;12.270;2023-08-06T08:24:17;21.90;61.10
49184;DHT22;35021;49.214;12.270;2023-08-06T08:26:46;21.90;61.20
49184;DHT22;35021;49.214;12.270;2023-08-06T08:29:13;22.00;61.20
49184;DHT22;35021;49.214;12.270;2023-08-06T08:31:40;22.00;61.20
49184;DHT22;35021;49.214;12.270;2023-08-06T08:34:06;21.90;61.40
49184;DHT22;35021;49.214;12.270;2023-08-06T08:36:33;22.00;61.50
49184;DHT22;35021;49.214;12.270;2023-08-06T08:39:00;22.00;61.60
49184;DHT22;35021;49.214;12.270;2023-08-06T08:41:31;22.00;61.70
49184;DHT22;35021;49.214;12.270;2023-08-06T08:43:59;22.00;61.70
49184;DHT22;35021;49.214;12.270;2023-08-06T08:46:27;22.00;61.80
49184;DHT22;35021;49.214;12.270;2023-08-06T08:48:59;22.10;61.80
49184;DHT22;35021;49.214;12.270;2023-08-06T08:51:28;22.10;61.70
49184;DHT22;35021;49.214;12.270;2023-08-06T08:53:56;22.20;61.60
49184;DHT22;35021;49.214;12.270;2023-08-06T08:56:24;22.30;61.50
49184;DHT22;35021;49.214;12.270;2023-08-06T08:58:51;22.40;61.20
49184;DHT22;35021;49.214;12.270;2023-08-06T09:01:21;22.50;60.70
49184;DHT22;35021;49.214;12.270;2023-08-06T09:03:48;22.70;60.40
49184;DHT22;35021;49.214;12.270;2023-08-06T09:06:19;22.80;60.00
49184;DHT22;35021;49.214;12.270;2023-08-06T09:09:08;22.90;59.60
49184;DHT22;35021;49.214;12.270;2023-08-06T09:11:42;23.00;59.30
49184;DHT22;35021;49.214;12.270;2023-08-06T09:14:10;23.10;59.00
49184;DHT22;35021;49.214;12.270;2023-08-06T09:16:38;23.10;58.70
49184;DHT22;35021;49.214;12.270;2023-08-06T09:19:12;23.20;58.50
49184;DHT22;35021;49.214;12.270;2023-08-06T09:21:40;23.20;58.40
49184;DHT22;35021;49.214;12.270;2023-08-06T09:24:13;23.30;58.50
49184;DHT22;35021;49.214;12.270;2023-08-06T09:26:43;23.20;58.50
49184;DHT22;35021;49.214;12.270;2023-08-06T09:29:11;23.30;58.50
49184;DHT22;35021;49.214;12.270;2023-08-06T09:31:42;23.20;58.50
49184;DHT22;35021;49.214;12.270;2023-08-06T09:34:16;23.20;58.50
49184;DHT22;35021;49.214;12.270;2023-08-06T09:36:53;23.20;58.60
49184;DHT22;35021;49.214;12.270;2023-08-06T09:39:30;23.20;58.60
49184;DHT22;35021;49.214;12.270;2023-08-06T09:41:59;23.20;58.60
49184;DHT22;35021;49.214;12.270;2023-08-06T09:44:27;23.20;58.60
49184;DHT22;35021;49.214;12.270;2023-08-06T09:46:56;23.20;58.50
49184;DHT22;35021;49.214;12.270;2023-08-06T09:49:42;23.20;58.50
49184;DHT22;35021;49.214;12.270;2023-08-06T09:52:13;23.20;58.50
49184;DHT22;35021;49.214;12.270;2023-08-06T09:54:43;23.10;58.40
49184;DHT22;35021;49.214;12.270;2023-08-06T09:57:11;23.10;58.50
49184;DHT22;35021;49.214;12.270;2023-08-06T09:59:39;23.10;58.70
49184;DHT22;35021;49.214;12.270;2023-08-06T10:02:14;23.10;58.80
49184;DHT22;35021;49.214;12.270;2023-08-06T10:04:44;23.10;59.00
49184;DHT22;35021;49.214;12.270;2023-08-06T10:07:21;23.00;59.10
49184;DHT22;35021;49.214;12.270;2023-08-06T10:09:50;23.10;59.20
49184;DHT22;35021;49.214;12.270;2023-08-06T10:12:18;23.10;59.40
49184;DHT22;35021;49.214;12.270;2023-08-06T10:14:47;23.00;59.30
49184;DHT22;35021;49.214;12.270;2023-08-06T10:17:16;23.10;59.30
49184;DHT22;35021;49.214;12.270;2023-08-06T10:19:44;23.00;59.20
49184;DHT22;35021;49.214;12.270;2023-08-06T10:22:12;23.10;59.30
49184;DHT22;35021;49.214;12.270;2023-08-06T10:24:50;23.10;59.30
49184;DHT22;35021;49.214;12.270;2023-08-06T10:27:35;23.00;59.30
49184;DHT22;35021;49.214;12.270;2023-08-06T10:30:28;23.00;59.30
49184;DHT22;35021;49.214;12.270;2023-08-06T10:33:00;23.10;59.30
49184;DHT22;35021;49.214;12.270;2023-08-06T10:38:22;23.00;59.30
49184;DHT22;35021;49.214;12.270;2023-08-06T10:41:00;23.10;59.50
49184;DHT22;35021;49.214;12.270;2023-08-06T10:43:36;23.10;59.50
49184;DHT22;35021;49.214;12.270;2023-08-06T10:46:12;23.00;59.50
49184;DHT22;35021;49.214;12.270;2023-08-06T10:48:50;23.00;59.60
49184;DHT22;35021;49.214;12.270;2023-08-06T10:51:17;23.00;59.70
49184;DHT22;35021;49.214;12.270;2023-08-06T10:53:46;23.00;59.90
49184;DHT22;35021;49.214;12.270;2023-08-06T10:56:22;23.00;59.90
49184;DHT22;35021;49.214;12.270;2023-08-06T10:58:55;23.00;59.90
49184;DHT22;35021;49.214;12.270;2023-08-06T11:01:28;23.00;59.90
49184;DHT22;35021;49.214;12.270;2023-08-06T11:04:02;23.00;59.90
49184;DHT22;35021;49.214;12.270;2023-08-06T11:06:29;23.00;60.00
49184;DHT22;35021;49.214;12.270;2023-08-06T11:08:59;22.90;60.00
49184;DHT22;35021;49.214;12.270;2023-08-06T11:11:27;22.90;60.00
49184;DHT22;35021;49.214;12.270;2023-08-06T11:13:55;22.90;60.00
49184;DHT22;35021;49.214;12.270;2023-08-06T11:16:23;22.90;60.00
49184;DHT22;35021;49.214;12.270;2023-08-06T11:18:53;22.90;60.00
49184;DHT22;35021;49.214;12.270;2023-08-06T11:21:22;22.90;60.00
49184;DHT22;35021;49.214;12.270;2023-08-06T11:23:55;22.90;60.00
49184;DHT22;35021;49.214;12.270;2023-08-06T11:26:22;22.90;60.00
49184;DHT22;35021;49.214;12.270;2023-08-06T11:28:52;22.80;59.90
49184;DHT22;35021;49.214;12.270;2023-08-06T11:31:22;22.90;59.90
49184;DHT22;35021;49.214;12.270;2023-08-06T11:33:50;22.90;59.90
49184;DHT22;35021;49.214;12.270;2023-08-06T11:36:31;22.90;59.90
49184;DHT22;35021;49.214;12.270;2023-08-06T11:39:00;22.80;59.80
49184;DHT22;35021;49.214;12.270;2023-08-06T11:41:30;22.80;59.80
49184;DHT22;35021;49.214;12.270;2023-08-06T11:44:00;22.80;59.80
49184;DHT22;35021;49.214;12.270;2023-08-06T11:46:27;22.80;59.80
49184;DHT22;35021;49.214;12.270;2023-08-06T11:48:56;22.80;59.90
49184;DHT22;35021;49.214;12.270;2023-08-06T11:51:23;22.80;59.90
49184;DHT22;35021;49.214;12.270;2023-08-06T11:53:56;22.80;59.90
49184;DHT22;35021;49.214;12.270;2023-08-06T11:56:25;22.80;59.90
49184;DHT22;35021;49.214;12.270;2023-08-06T11:58:53;22.90;59.80
49184;DHT22;35021;49.214;12.270;2023-08-06T12:01:21;22.90;59.80
49184;DHT22;35021;49.214;12.270;2023-08-06T12:03:48;22.90;59.70
49184;DHT22;35021;49.214;12.270;2023-08-06T12:06:15;22.80;59.60
49184;DHT22;35021;49.214;12.270;2023-08-06T12:08:44;22.80;59.50
49184;DHT22;35021;49.214;12.270;2023-08-06T12:11:11;22.90;59.60
49184;DHT22;35021;49.214;12.270;2023-08-06T12:13:38;22.90;59.50
49184;DHT22;35021;49.214;12.270;2023-08-06T12:16:05;22.90;59.40
49184;DHT22;35021;49.214;12.270;2023-08-06T12:18:32;22.90;59.30
49184;DHT22;35021;49.214;12.270;2023-08-06T12:20:59;22.90;59.30
49184;DHT22;35021;49.214;12.270;2023-08-06T12:23:26;22.90;59.20
49184;DHT22;35021;49.214;12.270;2023-08-06T12:25:53;22.90;59.20
49184;DHT22;35021;49.214;12.270;2023-08-06T12:28:19;22.90;59.20
49184;DHT22;35021;49.214;12.270;2023-08-06T12:30:49;22.90;59.10
49184;DHT22;35021;49.214;12.270;2023-08-06T12:33:18;22.90;59.00
49184;DHT22;35021;49.214;12.270;2023-08-06T12:35:45;22.90;58.90
49184;DHT22;35021;49.214;12.270;2023-08-06T12:38:12;22.80;58.90
49184;DHT22;35021;49.214;12.270;2023-08-06T12:40:40;22.90;59.20
49184;DHT22;35021;49.214;12.270;2023-08-06T12:43:09;22.90;58.90
49184;DHT22;35021;49.214;12.270;2023-08-06T12:45:36;22.90;58.80
49184;DHT22;35021;49.214;12.270;2023-08-06T12:48:03;22.90;58.70
49184;DHT22;35021;49.214;12.270;2023-08-06T12:50:30;22.90;58.80
49184;DHT22;35021;49.214;12.270;2023-08-06T12:52:59;22.90;58.70
49184;DHT22;35021;49.214;12.270;2023-08-06T12:55:27;22.90;58.70
49184;DHT22;35021;49.214;12.270;2023-08-06T12:57:57;22.90;58.60
49184;DHT22;35021;49.214;12.270;2023-08-06T13:00:26;22.90;58.60
49184;DHT22;35021;49.214;12.270;2023-08-06T13:02:53;22.90;58.60
49184;DHT22;35021;49.214;12.270;2023-08-06T13:05:20;22.90;58.60
49184;DHT22;35021;49.214;12.270;2023-08-06T13:07:47;22.90;58.60
49184;DHT22;35021;49.214;12.270;2023-08-06T13:10:14;22.90;58.40
49184;DHT22;35021;49.214;12.270;2023-08-06T13:12:41;22.90;58.40
49184;DHT22;35021;49.214;12.270;2023-08-06T13:15:08;22.90;58.40
49184;DHT22;35021;49.214;12.270;2023-08-06T13:17:36;22.90;58.40
49184;DHT22;35021;49.214;12.270;2023-08-06T13:20:03;22.90;58.40
49184;DHT22;35021;49.214;12.270;2023-08-06T13:22:30;22.90;58.40
49184;DHT22;35021;49.214;12.270;2023-08-06T13:24:57;22.90;58.30
49184;DHT22;35021;49.214;12.270;2023-08-06T13:27:24;22.90;58.30
49184;DHT22;35021;49.214;12.270;2023-08-06T13:29:51;22.90;58.30
49184;DHT22;35021;49.214;12.270;2023-08-06T13:32:47;22.90;58.20
49184;DHT22;35021;49.214;12.270;2023-08-06T13:35:14;22.90;58.20
49184;DHT22;35021;49.214;12.270;2023-08-06T13:37:41;23.00;58.20
49184;DHT22;35021;49.214;12.270;2023-08-06T13:40:08;23.00;58.10
49184;DHT22;35021;49.214;12.270;2023-08-06T13:42:35;23.00;58.00
49184;DHT22;35021;49.214;12.270;2023-08-06T13:45:02;23.00;57.90
49184;DHT22;35021;49.214;12.270;2023-08-06T13:47:30;23.00;57.80
49184;DHT22;35021;49.214;12.270;2023-08-06T13:49:57;23.00;57.70
49184;DHT22;35021;49.214;12.270;2023-08-06T13:52:27;23.00;57.60
49184;DHT22;35021;49.214;12.270;2023-08-06T13:54:54;23.00;57.60
49184;DHT22;35021;49.214;12.270;2023-08-06T13:57:21;23.00;57.60
49184;DHT22;35021;49.214;12.270;2023-08-06T13:59:48;23.00;57.60
49184;DHT22;35021;49.214;12.270;2023-08-06T14:02:15;23.00;57.50
49184;DHT22;35021;49.214;12.270;2023-08-06T14:04:45;23.00;57.50
49184;DHT22;35021;49.214;12.270;2023-08-06T14:07:12;23.00;57.70
49184;DHT22;35021;49.214;12.270;2023-08-06T14:09:39;22.90;57.80
49184;DHT22;35021;49.214;12.270;2023-08-06T14:12:06;22.90;57.90
49184;DHT22;35021;49.214;12.270;2023-08-06T14:14:33;22.90;58.10
49184;DHT22;35021;49.214;12.270;2023-08-06T14:17:01;22.90;58.10
49184;DHT22;35021;49.214;12.270;2023-08-06T14:19:28;22.90;58.10
49184;DHT22;35021;49.214;12.270;2023-08-06T14:21:55;22.90;58.20
49184;DHT22;35021;49.214;12.270;2023-08-06T14:24:23;22.90;58.10
49184;DHT22;35021;49.214;12.270;2023-08-06T14:26:49;23.00;58.20
49184;DHT22;35021;49.214;12.270;2023-08-06T14:29:17;23.00;58.10
49184;DHT22;35021;49.214;12.270;2023-08-06T14:31:43;23.00;58.10
49184;DHT22;35021;49.214;12.270;2023-08-06T14:34:11;23.00;58.20
49184;DHT22;35021;49.214;12.270;2023-08-06T14:36:37;23.10;58.30
49184;DHT22;35021;49.214;12.270;2023-08-06T14:39:04;23.00;58.40
49184;DHT22;35021;49.214;12.270;2023-08-06T14:41:31;23.00;58.50
49184;DHT22;35021;49.214;12.270;2023-08-06T14:43:58;23.00;58.50
49184;DHT22;35021;49.214;12.270;2023-08-06T14:46:25;23.00;58.50
49184;DHT22;35021;49.214;12.270;2023-08-06T14:48:52;22.90;58.40
49184;DHT22;35021;49.214;12.270;2023-08-06T14:51:19;22.90;58.40
49184;DHT22;35021;49.214;12.270;2023-08-06T14:53:47;22.90;58.40
49184;DHT22;35021;49.214;12.270;2023-08-06T14:56:14;22.90;58.40
49184;DHT22;35021;49.214;12.270;2023-08-06T14:58:41;22.80;58.30
49184;DHT22;35021;49.214;12.270;2023-08-06T15:01:08;22.90;58.30
49184;DHT22;35021;49.214;12.270;2023-08-06T15:03:35;22.80;58.20
49184;DHT22;35021;49.214;12.270;2023-08-06T15:06:04;22.80;58.10
49184;DHT22;35021;49.214;12.270;2023-08-06T15:08:31;22.80;58.00
49184;DHT22;35021;49.214;12.270;2023-08-06T15:10:58;22.80;58.00
49184;DHT22;35021;49.214;12.270;2023-08-06T15:13:29;22.80;57.90
49184;DHT22;35021;49.214;12.270;2023-08-06T15:15:56;22.80;57.80
49184;DHT22;35021;49.214;12.270;2023-08-06T15:18:23;22.80;57.80
49184;DHT22;35021;49.214;12.270;2023-08-06T15:20:50;22.80;57.70
49184;DHT22;35021;49.214;12.270;2023-08-06T15:23:17;22.80;57.70
49184;DHT22;35021;49.214;12.270;2023-08-06T15:25:44;22.80;57.60
49184;DHT22;35021;49.214;12.270;2023-08-06T15:28:11;22.80;57.50
49184;DHT22;35021;49.214;12.270;2023-08-06T15:30:37;22.80;57.50
49184;DHT22;35021;49.214;12.270;2023-08-06T15:33:06;22.80;57.50